createdAt,value
2022-10-11T00:04:59.196Z,98.93
2022-10-11T00:10:00.619Z,99.00
2022-10-11T00:15:02.980Z,100.00
2022-10-11T00:20:04.912Z,98.79
2022-10-11T00:25:08.404Z,98.72
2022-10-11T00:30:10.959Z,98.79
2022-10-11T00:35:12.476Z,97.52
2022-10-11T00:40:17.271Z,97.86
2022-10-11T00:45:27.568Z,97.66
2022-10-11T00:50:33.064Z,96.88
2022-10-11T00:55:40.285Z,95.80
2022-10-11T01:00:41.979Z,95.96
2022-10-11T01:05:44.256Z,95.96
2022-10-11T01:10:45.737Z,96.46
2022-10-11T01:15:56.887Z,97.09
2022-10-11T01:21:04.097Z,95.95
2022-10-11T01:27:00.427Z,97.30
2022-10-11T01:32:24.426Z,97.68
2022-10-11T01:37:31.935Z,97.78
2022-10-11T01:42:36.241Z,98.12
2022-10-11T01:47:38.999Z,97.49
2022-10-11T01:52:44.427Z,97.23
2022-10-11T01:57:45.767Z,98.14
2022-10-11T02:03:06.079Z,98.08
2022-10-11T02:08:38.666Z,97.40
2022-10-11T02:13:46.146Z,97.48
2022-10-11T02:18:51.647Z,97.63
2022-10-11T02:24:09.699Z,97.93
2022-10-11T02:29:14.897Z,97.48
2022-10-11T02:34:35.566Z,97.04
2022-10-11T02:39:42.568Z,95.58
2022-10-11T02:44:53.174Z,97.21
2022-10-11T02:49:55.243Z,97.13
2022-10-11T02:54:56.706Z,96.15
2022-10-11T02:59:58.123Z,96.11
2022-10-11T03:05:00.117Z,97.21
2022-10-11T03:10:01.951Z,97.97
2022-10-11T03:15:04.081Z,96.95
2022-10-11T03:20:06.513Z,96.07
2022-10-11T03:25:08.410Z,96.28
2022-10-11T03:30:13.296Z,96.71
2022-10-11T03:35:16.650Z,97.95
2022-10-11T03:40:18.200Z,96.95
2022-10-11T03:45:19.624Z,96.26
2022-10-11T03:50:21.076Z,96.42
2022-10-11T03:55:22.513Z,96.07
2022-10-11T04:00:24.322Z,96.40
2022-10-11T04:05:25.771Z,95.89
2022-10-11T04:10:27.236Z,96.25
2022-10-11T04:15:28.721Z,95.60
2022-10-11T04:20:30.152Z,95.98
2022-10-11T04:25:31.605Z,96.06
2022-10-11T04:30:33.025Z,97.00
2022-10-11T04:35:34.461Z,96.39
2022-10-11T04:40:35.880Z,95.96
2022-10-11T04:45:37.338Z,95.30
2022-10-11T04:50:38.732Z,97.23
2022-10-11T04:55:42.399Z,97.07
2022-10-11T05:00:43.810Z,96.88
2022-10-11T05:05:45.268Z,95.79
2022-10-11T05:11:00.497Z,95.99
2022-10-11T05:16:06.931Z,95.21
2022-10-11T05:21:22.534Z,94.89
2022-10-11T05:26:27.327Z,95.42
2022-10-11T05:31:28.908Z,94.23
2022-10-11T05:36:30.399Z,95.31
2022-10-11T05:41:31.972Z,94.28
2022-10-11T05:46:33.518Z,94.40
2022-10-11T05:51:35.075Z,95.55
2022-10-11T05:56:36.470Z,96.39
2022-10-11T06:01:37.938Z,96.69
2022-10-11T06:06:39.375Z,96.40
2022-10-11T06:11:41.307Z,96.67
2022-10-11T06:16:42.724Z,95.52
2022-10-11T06:21:45.688Z,95.71
2022-10-11T06:26:48.972Z,95.30
2022-10-11T06:31:50.451Z,94.79
2022-10-11T06:36:52.364Z,95.34
2022-10-11T06:41:53.912Z,94.79
2022-10-11T06:46:55.959Z,95.08
2022-10-11T06:51:57.440Z,95.95
2022-10-11T06:56:59.245Z,96.19
2022-10-11T07:02:00.705Z,97.47
2022-10-11T07:07:02.164Z,98.07
2022-10-11T07:12:03.737Z,98.31
2022-10-11T07:17:05.433Z,98.29
2022-10-11T07:22:06.993Z,99.35
2022-10-11T07:27:08.441Z,99.81
2022-10-11T07:32:09.987Z,99.86
2022-10-11T07:37:11.630Z,99.58
2022-10-11T07:42:13.091Z,99.32
2022-10-11T07:47:14.505Z,99.38
2022-10-11T07:52:15.964Z,98.90
2022-10-11T07:57:17.414Z,97.77
2022-10-11T08:02:18.911Z,99.06
2022-10-11T08:07:20.333Z,97.82
2022-10-11T08:12:21.876Z,97.44
2022-10-11T08:17:23.409Z,97.53
2022-10-11T08:22:24.877Z,97.78
2022-10-11T08:27:26.717Z,98.32
2022-10-11T08:32:29.782Z,96.10
2022-10-11T08:37:31.419Z,95.12
2022-10-11T08:42:43.289Z,94.69
2022-10-11T08:47:45.629Z,96.71
2022-10-11T08:52:56.060Z,96.13
2022-10-11T08:57:58.963Z,96.11
2022-10-11T09:03:21.856Z,95.02
2022-10-11T09:08:31.303Z,95.31
2022-10-11T09:14:10.650Z,95.73
2022-10-11T09:19:37.556Z,95.85
2022-10-11T09:24:47.217Z,95.23
2022-10-11T09:30:09.300Z,94.53
2022-10-11T09:35:14.456Z,92.47
2022-10-11T09:40:34.357Z,91.43
2022-10-11T09:45:35.693Z,90.39
2022-10-11T09:50:39.291Z,88.15
2022-10-11T09:56:01.022Z,89.39
2022-10-11T10:01:08.925Z,89.05
2022-10-11T10:06:24.856Z,88.71
2022-10-11T10:11:36.482Z,87.63
2022-10-11T10:16:37.924Z,87.18
2022-10-11T10:21:46.655Z,86.09
2022-10-11T10:27:10.034Z,85.72
2022-10-11T10:32:23.542Z,84.76
2022-10-11T10:37:52.240Z,83.11
2022-10-11T10:42:55.072Z,82.59
2022-10-11T10:48:37.750Z,83.16
2022-10-11T10:54:19.495Z,82.57
2022-10-11T10:59:51.843Z,82.88
2022-10-11T11:05:11.624Z,77.83
2022-10-11T11:10:20.906Z,78.69
2022-10-11T11:15:38.283Z,79.58
2022-10-11T11:21:17.322Z,78.57
2022-10-11T11:26:49.944Z,73.87
2022-10-11T11:32:10.645Z,73.71
2022-10-11T11:37:19.936Z,71.05
2022-10-11T11:42:29.202Z,69.65
2022-10-11T11:47:37.738Z,70.71
2022-10-11T11:52:44.007Z,69.22
2022-10-11T11:57:51.400Z,67.36
2022-10-11T12:02:57.967Z,68.39
2022-10-11T12:08:05.984Z,67.59
2022-10-11T12:13:09.975Z,66.17
2022-10-11T12:18:15.290Z,65.50
2022-10-11T12:23:28.836Z,64.87
2022-10-11T12:28:42.895Z,66.25
2022-10-11T12:33:48.471Z,64.32
2022-10-11T12:39:21.187Z,62.83
2022-10-11T12:44:26.380Z,62.31
2022-10-11T12:49:36.286Z,60.81
2022-10-11T12:54:59.483Z,59.50
2022-10-11T13:00:30.869Z,56.47
2022-10-11T13:05:45.035Z,58.31
2022-10-11T13:10:48.395Z,56.49
2022-10-11T13:15:54.166Z,57.33
2022-10-11T13:20:55.717Z,56.04
2022-10-11T13:25:57.176Z,56.20
2022-10-11T13:30:59.119Z,57.82
2022-10-11T13:36:03.882Z,57.65
2022-10-11T13:41:08.903Z,58.33
2022-10-11T13:46:18.734Z,57.16
2022-10-11T13:51:32.338Z,57.17
2022-10-11T13:56:43.924Z,56.07
2022-10-11T14:01:46.259Z,59.26
2022-10-11T14:06:59.285Z,57.76
2022-10-11T14:12:25.714Z,56.94
2022-10-11T14:17:45.575Z,55.86
2022-10-11T14:22:46.897Z,56.36
2022-10-11T14:27:48.961Z,55.88
2022-10-11T14:32:52.891Z,56.15
2022-10-11T14:37:54.537Z,55.62
2022-10-11T14:42:56.580Z,56.56
2022-10-11T14:47:58.404Z,57.36
2022-10-11T14:52:59.961Z,58.67
2022-10-11T14:58:01.476Z,58.26
2022-10-11T15:03:04.745Z,58.85
2022-10-11T15:08:07.210Z,59.31
2022-10-11T15:13:09.060Z,59.70
2022-10-11T15:18:13.421Z,60.21
2022-10-11T15:23:14.953Z,57.03
2022-10-11T15:28:28.075Z,59.76
2022-10-11T15:33:29.649Z,60.55
2022-10-11T15:38:31.628Z,61.67
2022-10-11T15:43:33.476Z,63.23
2022-10-11T15:48:35.268Z,63.29
2022-10-11T15:53:37.144Z,64.82
2022-10-11T15:58:40.767Z,63.90
2022-10-11T16:03:43.216Z,65.49
2022-10-11T16:08:45.421Z,67.03
2022-10-11T16:13:47.526Z,67.75
2022-10-11T16:18:52.088Z,68.81
2022-10-11T16:23:53.507Z,70.59
2022-10-11T16:28:56.547Z,72.33
2022-10-11T16:33:58.068Z,70.90
2022-10-11T16:39:01.888Z,70.81
2022-10-11T16:44:03.586Z,72.98
2022-10-11T16:49:05.303Z,75.20
2022-10-11T16:54:07.071Z,76.63
2022-10-11T16:59:08.960Z,77.58
2022-10-11T17:04:10.792Z,79.44
2022-10-11T17:09:12.829Z,80.87
2022-10-11T17:14:14.231Z,82.15
2022-10-11T17:19:16.351Z,83.07
2022-10-11T17:24:17.765Z,83.86
2022-10-11T17:29:20.945Z,84.00
2022-10-11T17:34:22.398Z,84.50
2022-10-11T17:39:25.625Z,85.99
2022-10-11T17:44:27.035Z,85.71
2022-10-11T17:49:28.810Z,86.23
2022-10-11T17:54:30.316Z,87.69
2022-10-11T17:59:32.404Z,88.53
2022-10-11T18:04:33.978Z,89.23
2022-10-11T18:09:36.689Z,89.59
2022-10-11T18:14:38.193Z,89.21
2022-10-11T18:19:39.613Z,89.26
2022-10-11T18:24:41.386Z,90.55
2022-10-11T18:29:43.413Z,90.70
2022-10-11T18:34:44.934Z,90.68
2022-10-11T18:39:46.411Z,91.78
2022-10-11T18:44:47.903Z,92.03
2022-10-11T18:49:49.400Z,91.33
2022-10-11T18:54:51.721Z,92.35
2022-10-11T18:59:53.212Z,92.42
2022-10-11T19:04:54.964Z,93.15
2022-10-11T19:09:56.392Z,91.92
2022-10-11T19:14:57.931Z,92.36
2022-10-11T19:19:59.435Z,91.48
2022-10-11T19:25:00.943Z,92.15
2022-10-11T19:30:02.372Z,92.38
2022-10-11T19:35:04.074Z,92.53
2022-10-11T19:40:06.165Z,93.67
2022-10-11T19:45:08.211Z,92.14
2022-10-11T19:50:09.813Z,92.88
2022-10-11T19:55:11.350Z,94.09
2022-10-11T20:00:13.265Z,92.26
2022-10-11T20:05:14.764Z,93.35
2022-10-11T20:10:16.233Z,92.84
2022-10-11T20:15:17.672Z,93.21
2022-10-11T20:20:19.435Z,92.60
2022-10-11T20:25:21.034Z,93.18
2022-10-11T20:30:22.529Z,92.81
2022-10-11T20:35:23.995Z,93.39
2022-10-11T20:40:25.658Z,93.81
2022-10-11T20:45:27.168Z,93.04
2022-10-11T20:50:28.575Z,93.21
2022-10-11T20:55:29.994Z,92.70
2022-10-11T21:00:31.393Z,93.12
2022-10-11T21:05:33.213Z,92.70
2022-10-11T21:10:34.678Z,92.62
2022-10-11T21:15:36.082Z,93.12
2022-10-11T21:20:38.788Z,93.10
2022-10-11T21:25:40.647Z,92.37
2022-10-11T21:30:42.053Z,92.09
2022-10-11T21:35:43.548Z,91.77
2022-10-11T21:40:45.020Z,91.88
2022-10-11T21:45:46.520Z,92.41
2022-10-11T21:50:54.893Z,92.29
2022-10-11T21:55:57.807Z,93.45
2022-10-11T22:00:59.504Z,94.91
2022-10-11T22:06:03.069Z,94.58
2022-10-11T22:11:05.300Z,94.30
2022-10-11T22:16:09.147Z,94.32
2022-10-11T22:21:16.784Z,93.88
2022-10-11T22:26:21.656Z,93.88
2022-10-11T22:31:23.711Z,93.83
2022-10-11T22:36:25.832Z,93.04
2022-10-11T22:41:27.315Z,93.19
2022-10-11T22:46:28.742Z,93.28
2022-10-11T22:51:30.173Z,93.50
2022-10-11T22:56:31.626Z,93.69
2022-10-11T23:01:33.087Z,93.73
2022-10-11T23:06:34.472Z,93.22
2022-10-11T23:11:35.937Z,93.42
2022-10-11T23:16:37.368Z,93.21
2022-10-11T23:21:38.764Z,93.35
2022-10-11T23:26:40.224Z,92.57
2022-10-11T23:31:41.608Z,92.61
2022-10-11T23:36:43.071Z,92.33
2022-10-11T23:41:44.546Z,91.80
2022-10-11T23:46:46.344Z,91.86
2022-10-11T23:51:47.751Z,92.15
2022-10-11T23:56:49.424Z,91.80
